createdAt,value
2023-05-06T00:03:34.298Z,12.60
2023-05-06T00:08:36.489Z,12.77
2023-05-06T00:13:39.344Z,12.43
2023-05-06T00:18:42.526Z,12.90
2023-05-06T00:23:44.665Z,12.15
2023-05-06T00:28:48.529Z,12.85
2023-05-06T00:33:51.126Z,12.98
2023-05-06T00:38:53.164Z,13.98
2023-05-06T00:43:56.165Z,13.50
2023-05-06T00:48:58.509Z,13.77
2023-05-06T00:54:01.545Z,13.75
2023-05-06T00:59:06.454Z,13.55
2023-05-06T01:04:08.729Z,13.55
2023-05-06T01:09:30.502Z,13.93
2023-05-06T01:14:47.255Z,13.77
2023-05-06T01:19:53.423Z,13.98
2023-05-06T01:24:55.827Z,13.75
2023-05-06T01:29:59.431Z,13.98
2023-05-06T01:35:19.799Z,13.32
2023-05-06T01:40:26.211Z,14.00
2023-05-06T01:45:31.782Z,13.23
2023-05-06T01:50:34.823Z,14.02
2023-05-06T01:55:36.900Z,13.60
2023-05-06T02:00:39.512Z,13.68
2023-05-06T02:05:41.580Z,13.80
2023-05-06T02:10:45.242Z,13.63
2023-05-06T02:15:56.003Z,14.90
2023-05-06T02:26:00.721Z,14.55
2023-05-06T02:31:03.056Z,14.82
2023-05-06T02:36:05.536Z,13.27
2023-05-06T02:41:07.667Z,14.45
2023-05-06T02:46:09.932Z,14.82
2023-05-06T02:51:12.696Z,14.40
2023-05-06T02:56:14.807Z,13.88
2023-05-06T03:01:17.021Z,14.15
2023-05-06T03:06:19.177Z,13.93
2023-05-06T03:11:22.058Z,13.57
2023-05-06T03:16:24.534Z,14.60
2023-05-06T03:21:30.184Z,14.13
2023-05-06T03:26:33.242Z,13.15
2023-05-06T03:31:35.677Z,13.45
2023-05-06T03:36:38.544Z,13.85
2023-05-06T03:41:41.409Z,13.43
2023-05-06T03:46:44.093Z,12.68
2023-05-06T03:51:47.598Z,13.50
2023-05-06T03:56:50.677Z,13.93
2023-05-06T04:01:53.343Z,13.82
2023-05-06T04:06:55.662Z,13.60
2023-05-06T04:11:59.470Z,14.07
2023-05-06T04:17:03.249Z,13.60
2023-05-06T04:22:05.601Z,14.23
2023-05-06T04:27:08.792Z,14.63
2023-05-06T04:32:11.710Z,14.50
2023-05-06T04:37:14.483Z,13.73
2023-05-06T04:42:24.159Z,14.13
2023-05-06T04:47:36.824Z,13.25
2023-05-06T04:52:40.649Z,13.93
2023-05-06T04:57:43.303Z,14.02
2023-05-06T05:02:45.604Z,14.00
2023-05-06T05:07:50.423Z,13.73
2023-05-06T05:12:53.632Z,12.82
2023-05-06T05:17:57.106Z,12.98
2023-05-06T05:22:59.351Z,12.70
2023-05-06T05:28:01.524Z,12.68
2023-05-06T05:33:05.305Z,12.90
2023-05-06T05:38:08.706Z,12.20
2023-05-06T05:43:12.091Z,12.80
2023-05-06T05:48:16.693Z,12.57
2023-05-06T05:53:18.991Z,11.95
2023-05-06T05:58:21.675Z,11.45
2023-05-06T06:03:24.533Z,12.55
2023-05-06T06:08:26.908Z,11.20
2023-05-06T06:13:31.890Z,12.23
2023-05-06T06:18:34.930Z,11.73
2023-05-06T06:23:38.271Z,11.95
2023-05-06T06:28:42.418Z,11.70
2023-05-06T06:33:45.122Z,11.73
2023-05-06T06:38:47.649Z,11.40
2023-05-06T06:43:49.968Z,11.73
2023-05-06T06:48:52.067Z,10.95
2023-05-06T06:53:54.238Z,11.23
2023-05-06T06:58:56.676Z,12.30
2023-05-06T07:03:59.569Z,11.55
2023-05-06T07:09:01.678Z,11.63
2023-05-06T07:14:04.736Z,12.13
2023-05-06T07:19:06.990Z,13.20
2023-05-06T07:24:09.213Z,13.95
2023-05-06T07:29:14.647Z,12.95
2023-05-06T07:34:16.968Z,13.65
2023-05-06T07:39:19.202Z,12.25
2023-05-06T07:44:21.502Z,14.73
2023-05-06T07:49:24.114Z,12.63
2023-05-06T07:54:26.318Z,13.15
2023-05-06T07:59:30.170Z,14.25
2023-05-06T08:04:33.095Z,13.18
2023-05-06T08:09:35.310Z,13.10
2023-05-06T08:14:37.700Z,13.60
2023-05-06T08:19:39.726Z,12.90
2023-05-06T08:24:41.995Z,13.18
2023-05-06T08:29:44.360Z,12.05
2023-05-06T08:34:46.764Z,12.75
2023-05-06T08:39:48.997Z,11.60
2023-05-06T08:44:55.595Z,10.60
2023-05-06T08:49:57.850Z,11.10
2023-05-06T08:55:04.884Z,10.20
2023-05-06T09:00:10.857Z,11.02
2023-05-06T09:05:13.183Z,9.25
2023-05-06T09:10:17.801Z,8.15
2023-05-06T09:15:24.017Z,9.00
2023-05-06T09:20:26.467Z,11.48
2023-05-06T09:25:29.563Z,9.02
2023-05-06T09:30:31.755Z,9.18
2023-05-06T09:35:39.103Z,5.70
2023-05-06T09:40:41.279Z,10.70
2023-05-06T09:45:44.888Z,9.07
2023-05-06T09:50:47.383Z,8.63
2023-05-06T09:55:50.883Z,9.10
2023-05-06T10:00:54.611Z,10.25
2023-05-06T10:05:59.195Z,6.93
2023-05-06T10:11:02.285Z,6.05
2023-05-06T10:16:05.958Z,5.78
2023-05-06T10:21:15.904Z,6.40
2023-05-06T10:26:20.807Z,5.35
2023-05-06T10:31:23.432Z,4.75
2023-05-06T10:36:28.325Z,4.72
2023-05-06T10:41:31.325Z,3.55
2023-05-06T10:46:57.561Z,3.72
2023-05-06T10:52:14.387Z,2.70
2023-05-06T10:57:16.676Z,2.67
2023-05-06T11:02:20.340Z,2.90
2023-05-06T11:07:24.384Z,2.33
2023-05-06T11:12:46.292Z,2.70
2023-05-06T11:17:48.574Z,2.42
2023-05-06T11:22:51.569Z,1.50
2023-05-06T11:27:55.963Z,1.40
2023-05-06T11:33:05.108Z,2.00
2023-05-06T11:38:07.749Z,1.63
2023-05-06T11:43:14.126Z,2.08
2023-05-06T11:48:18.053Z,1.27
2023-05-06T11:53:23.078Z,1.75
2023-05-06T11:58:27.453Z,1.13
2023-05-06T12:03:31.672Z,2.17
2023-05-06T12:08:35.902Z,1.95
2023-05-06T12:13:39.018Z,1.85
2023-05-06T12:18:41.288Z,1.50
2023-05-06T12:23:57.054Z,1.52
2023-05-06T12:29:07.837Z,1.23
2023-05-06T12:34:10.692Z,1.80
2023-05-06T12:39:13.822Z,1.73
2023-05-06T12:44:38.941Z,1.10
2023-05-06T12:49:51.764Z,1.70
2023-05-06T12:54:54.218Z,3.40
2023-05-06T12:59:56.668Z,1.73
2023-05-06T13:04:59.028Z,1.60
2023-05-06T13:10:02.943Z,1.50
2023-05-06T13:15:05.477Z,1.63
2023-05-06T13:20:08.185Z,1.17
2023-05-06T13:25:11.510Z,1.33
2023-05-06T13:30:13.946Z,1.40
2023-05-06T13:35:16.336Z,1.42
2023-05-06T13:40:18.508Z,1.70
2023-05-06T13:45:20.672Z,1.58
2023-05-06T13:50:23.269Z,1.45
2023-05-06T13:55:25.656Z,1.60
2023-05-06T14:00:28.085Z,1.80
2023-05-06T14:05:30.708Z,1.65
2023-05-06T14:10:32.820Z,2.25
2023-05-06T14:15:35.077Z,1.35
2023-05-06T14:20:37.343Z,1.50
2023-05-06T14:25:40.149Z,1.70
2023-05-06T14:30:42.786Z,1.80
2023-05-06T14:35:46.360Z,1.30
2023-05-06T14:40:48.412Z,1.30
2023-05-06T14:45:50.768Z,2.50
2023-05-06T14:50:53.545Z,1.63
2023-05-06T14:55:56.507Z,1.50
2023-05-06T15:00:58.614Z,2.67
2023-05-06T15:06:01.098Z,1.45
2023-05-06T15:11:04.326Z,1.48
2023-05-06T15:16:08.533Z,1.50
2023-05-06T15:21:13.347Z,1.63
2023-05-06T15:26:15.601Z,2.00
2023-05-06T15:31:17.774Z,1.50
2023-05-06T15:36:19.852Z,1.52
2023-05-06T15:41:24.717Z,1.58
2023-05-06T15:46:28.198Z,1.73
2023-05-06T15:51:30.898Z,1.75
2023-05-06T15:56:39.381Z,1.75
2023-05-06T16:02:24.453Z,2.25
2023-05-06T16:07:05.762Z,2.30
2023-05-06T16:12:08.172Z,2.20
2023-05-06T16:17:10.339Z,2.03
2023-05-06T16:22:12.484Z,2.10
2023-05-06T16:27:16.012Z,2.35
2023-05-06T16:32:18.096Z,2.30
2023-05-06T16:37:20.223Z,2.53
2023-05-06T16:42:22.775Z,2.38
2023-05-06T16:47:25.015Z,2.30
2023-05-06T16:52:27.921Z,3.05
2023-05-06T16:57:32.002Z,2.40
2023-05-06T17:02:34.509Z,2.75
2023-05-06T17:07:36.795Z,2.88
2023-05-06T17:12:39.054Z,3.10
2023-05-06T17:17:41.504Z,3.55
2023-05-06T17:22:43.585Z,4.00
2023-05-06T17:27:45.706Z,4.60
2023-05-06T17:32:47.742Z,5.15
2023-05-06T17:37:49.752Z,4.68
2023-05-06T17:42:51.908Z,4.50
2023-05-06T17:47:54.645Z,10.55
2023-05-06T17:52:56.740Z,9.48
2023-05-06T17:57:59.486Z,7.40
2023-05-06T18:03:01.646Z,5.07
2023-05-06T18:08:04.731Z,8.30
2023-05-06T18:13:06.868Z,40.30
2023-05-06T18:18:09.055Z,38.80
2023-05-06T18:23:11.201Z,181.50
2023-05-06T18:28:13.313Z,164.38
2023-05-06T18:33:15.613Z,44.38
2023-05-06T18:38:18.147Z,38.50
2023-05-06T18:43:20.370Z,14.32
2023-05-06T18:48:23.614Z,8.32
2023-05-06T18:53:25.767Z,19.52
2023-05-06T18:58:27.895Z,8.43
2023-05-06T19:03:31.576Z,8.57
2023-05-06T19:08:33.619Z,7.88
2023-05-06T19:13:35.774Z,7.15
2023-05-06T19:18:38.177Z,8.63
2023-05-06T19:23:40.779Z,7.90
2023-05-06T19:28:42.836Z,7.32
2023-05-06T19:33:45.638Z,7.60
2023-05-06T19:38:47.711Z,7.55
2023-05-06T19:43:49.977Z,7.03
2023-05-06T19:48:52.546Z,7.35
2023-05-06T19:53:54.832Z,8.23
2023-05-06T19:58:56.961Z,8.35
2023-05-06T20:04:00.397Z,8.65
2023-05-06T20:09:02.739Z,7.43
2023-05-06T20:14:05.152Z,7.30
2023-05-06T20:19:07.905Z,7.32
2023-05-06T20:24:10.125Z,7.13
2023-05-06T20:29:12.497Z,7.40
2023-05-06T20:34:14.845Z,7.63
2023-05-06T20:39:16.936Z,6.97
2023-05-06T20:44:19.074Z,7.07
2023-05-06T20:49:21.233Z,6.53
2023-05-06T20:54:23.383Z,6.43
2023-05-06T20:59:27.015Z,6.88
2023-05-06T21:04:29.368Z,7.20
2023-05-06T21:09:31.509Z,7.50
2023-05-06T21:14:34.194Z,7.43
2023-05-06T21:19:36.347Z,7.85
2023-05-06T21:24:38.486Z,7.82
2023-05-06T21:29:40.817Z,7.53
2023-05-06T21:34:42.909Z,8.30
2023-05-06T21:39:45.768Z,8.43
2023-05-06T21:44:47.868Z,8.55
2023-05-06T21:49:50.051Z,8.18
2023-05-06T21:54:52.322Z,8.35
2023-05-06T21:59:54.766Z,8.90
2023-05-06T22:04:56.878Z,9.00
2023-05-06T22:09:59.147Z,9.18
2023-05-06T22:15:01.416Z,9.57
2023-05-06T22:20:04.343Z,8.75
2023-05-06T22:25:07.649Z,9.65
2023-05-06T22:30:11.166Z,10.38
2023-05-06T22:35:13.866Z,10.13
2023-05-06T22:40:16.047Z,8.98
2023-05-06T22:45:18.123Z,8.82
2023-05-06T22:50:20.678Z,8.88
2023-05-06T22:55:23.182Z,9.40
2023-05-06T23:00:25.381Z,9.77
2023-05-06T23:05:27.430Z,9.90
2023-05-06T23:10:29.619Z,9.63
2023-05-06T23:15:31.872Z,10.10
2023-05-06T23:20:34.226Z,9.52
2023-05-06T23:25:36.944Z,9.38
2023-05-06T23:30:39.166Z,9.38
2023-05-06T23:35:41.365Z,9.57
2023-05-06T23:40:43.501Z,9.88
2023-05-06T23:45:45.706Z,9.70
2023-05-06T23:50:48.475Z,9.60
2023-05-06T23:55:50.711Z,10.55
